Immagine casuale
Testata Regione Lazio ARSIAL SIARL

Ultima Misura Rilevata

Temperatura, Umidità, Pioggia, Pressione Radiazione Solare, Venti, Evapotraspirazione, ecc.
Temperature diurne e notturne Direzione vento Legenda
Prov Stazione Data TMin TMed TMax UMed Pioggia PMed
FR ALATRI Basciano 24/09/2020 14,8 20,1 27,7 76 0 1.011
FR ALVITO Az. Ist. S. Benedetto 24/09/2020 11,5 18,4 26,5 84 1,2 1.012
FR ANAGNI La Gloria 24/09/2020 12,7 19 26,9 87 0,4 1.012
FR ARPINO Vigne Piane 24/09/2020 14,4 18,8 26,7 84 0,4 1.013
FR BOVILLE ERNICA Sasso 24/09/2020 14,8 20,3 29,2 83 2,2 1.014
FR CECCANO C.da Passo del Cardinale 24/09/2020 13,1 18,8 28 93 22,2 ----
FR ESPERIA Modale 24/09/2020 13,7 19,8 29 82 0,2 1.012
FR PASTENA Acero 24/09/2020 11,4 19,2 27,3 86 3,2 1.011
FR PIGLIO Civitella 24/09/2020 12,7 18,9 27,6 85 0 1.012
FR PONTECORVO Melfi di Sotto 24/09/2020 13,4 20,3 28,9 80 1,4 ----
FR S. ELIA FIUMERAPIDO Portella 24/09/2020 14,1 20 27,9 85 0,2 1.013
FR S. GIORGIO A LIRI Porto 24/09/2020 13,5 20,1 29,8 78 0 1.011
FR SGURGOLA Campo Lungo 24/09/2020 13,1 19,7 27,3 87 0,2 ----
FR VALLECORSA Serbatoio comunale 24/09/2020 14,6 19,2 24,5 84 0,2 1.012
LT APRILIA Le Ferriere 24/09/2020 16 21,6 27,8 87 0,4 1.012
LT CISTERNA B.go Carso 24/09/2020 14,1 20,2 26,1 88 1,4 ----
LT CISTERNA Doganella di Ninfa 24/09/2020 13,3 19,7 26,1 75 4 1.013
LT CORI Portone 24/09/2020 16,2 21,7 27,5 82 0 1.011
LT FONDI Capratica 24/09/2020 15,1 21,4 28,9 87 0 1.013
LT FORMIA Loc. Gianola 24/09/2020 14,7 21,1 26,6 86 12,4 ----
LT ITRI Valle Quercia 24/09/2020 16,1 21,5 26,9 75 0 1.012
LT MAENZA Casacotta 24/09/2020 14,5 20,7 27,1 86 0,2 1.011
LT MINTURNO Pulcherini 24/09/2020 16,7 21,8 28,1 78 7 1.013
LT PONTINIA Cotarda 24/09/2020 14,5 21,3 28,1 88 0 1.012
LT SABAUDIA Acquaviva 24/09/2020 15,4 21,3 27,9 88 0,2 1.013
LT SONNINO Frasso 24/09/2020 16,7 22,6 28,5 78 0 1.012
RI ACCUMOLI Terracino 24/09/2020 11,2 14,3 19,1 87 1,3 1.014
RI BORGOVELINO Ponte Basso 24/09/2020 11,4 17,2 26,3 88 1,2 1.015
RI CANTALUPO S. Francesco 24/09/2020 13,5 18,3 24,5 94 1 ----
RI CASTEL DI TORA Monte di Tora 24/09/2020 12,4 16,9 25,7 92 3 1.010
RI CASTELNUOVO FARFA C. Spadone 24/09/2020 15,9 19,8 25,5 92 1,8 ----
RI CONFIGNI Portella 24/09/2020 14,5 19,2 24,4 83 2,4 1.012
RI FARA SABINA Canneto 24/09/2020 15,9 20,3 26,8 84 2,4 1.012
RI FARA SABINA Sant'Andrea 24/09/2020 15,7 19,9 25,6 94 4,6 ----
RI MONTELEONE S. Prato Camino 24/09/2020 13,6 18,1 25,7 92 8,4 1.012
RI MONTOPOLI IN SABINA Colle Arcone 24/09/2020 15,8 19,5 25,4 96 11 ----
RI MONTOPOLI IN SABINA Villa Caprola 24/09/2020 15,2 19,2 27 99 11,1 ----
RI POGGIO CATINO Pastine 24/09/2020 15,5 20,5 25,2 83 4,2 ----
RI POGGIO NATIVO Casali 24/09/2020 14,8 18,7 23,3 94 17,8 ----
RI RIETI Piana di Rieti 24/09/2020 11,6 18,6 27,4 84 6 1.015
RI SCANDRIGLIA Ponticelli 24/09/2020 14,2 19,3 24 93 3,8 ----
RM AGOSTA La Cisterna 24/09/2020 12,5 16,5 22,1 98 14,8 1.017
RM BRACCIANO Prato Pianciano 24/09/2020 14,9 19,9 25 94 2,2 1.014
RM CANALE MONTERANO Monte Virginio 24/09/2020 13,6 18,8 25,3 92 4 1.011
RM CERVETERI Campo di Mare 24/09/2020 17,9 22,1 26,4 85 21,4 ----
RM CIVITELLA S.PAOLO Le Cese 24/09/2020 15 19,3 25,9 91 14,6 1.009
RM FIUMICINO Maccarese 24/09/2020 15,4 21,4 27,8 90 2 1.012
RM FIUMICINO Testa di Lepre 24/09/2020 15,6 20,3 25,8 92 14,2 ----
RM FORMELLO Perazzeta 24/09/2020 15,5 20,1 25,2 88 7,3 ----
RM FRASCATI Prata Porci 24/09/2020 15 21,9 27,9 69 0,6 1.014
RM GENAZZANO Coop. La Sonnina 24/09/2020 13,9 18,9 25,6 87 0 1.014
RM GROTTAFERRATA Valle Marciana 24/09/2020 16,7 21,6 26,3 81 0,2 1.011
RM LADISPOLI Palo Laziale 24/09/2020 16,5 21,5 26,3 87 6,4 1.013
RM LICENZA Colle Franco 24/09/2020 12,8 17 26,2 89 4,2 1.014
RM MARCELLINA V. Campetella 24/09/2020 16,2 20,8 25,8 88 5,6 ----
RM MARINO Gotto d'Oro 24/09/2020 17,1 22 27,1 80 0,6 1.013
RM MONTECOMPATRI Colle Mattia 24/09/2020 15,9 22 27,9 77 0,2 1.013
RM MONTECOMPATRI Pantano Borghese 24/09/2020 15,3 21,5 28,2 82 1,6 1.012
RM MONTELIBRETTI Bruciati 24/09/2020 15,3 19,7 27,4 91 2,8 ----
RM MONTEPORZIO Camaldoli 24/09/2020 14 18,7 24,3 89 0,2 1.013
RM MONTEROTONDO Grotta Marozza 24/09/2020 15,3 20,3 26,3 85 6,4 1.012
RM PALOMBARA Fonte Grande 24/09/2020 14 20,2 26,3 84 4,2 ----
RM ROMA Capocotta 24/09/2020 N.D. N.D. N.D. N.D. N.D. ----
RM ROMA Ponte di Nona 24/09/2020 16,3 21,6 26,6 89 1,4 1.012
RM ROMA Via Lanciani 38 24/09/2020 N.D. N.D. N.D. N.D. N.D. N.D.
RM S. GREGORIO C. Faustiniano 24/09/2020 16,5 20,6 25,9 82 1,2 1.010
RM VELLETRI Cantina Sperimentale 24/09/2020 14,4 19,7 24 87 1,6 1.010
RM VELLETRI Prato Lungo 24/09/2020 N.D. N.D. N.D. N.D. N.D. ----
RM ZAGAROLO Santa Apollara 24/09/2020 15,7 20,5 26,4 84 0 ----
VT ACQUAPENDENTE Falconiera 24/09/2020 13,9 18,6 25,1 89 0,4 1.009
VT BAGNOREGIO Castell Cellesi 24/09/2020 13,6 18,2 22,3 95 0,8 ----
VT BASSANO R. Piano Mola 24/09/2020 12,7 17,9 24,6 96 0,6 1.011
VT BLERA Puntoni 24/09/2020 15,6 20,4 24,5 86 0,2 1.011
VT BOLSENA Capone 24/09/2020 14,4 20,3 27,2 88 0,2 1.009
VT BOLSENA Rentica 24/09/2020 13,7 19,4 23,2 95 0,2 ----
VT CANINO Diga Timone 24/09/2020 14,4 19,5 25 93 1,4 1.012
VT CANINO Pianacce 24/09/2020 14,5 20,7 25,2 88 2,4 1.011
VT CANINO San Valeriano 24/09/2020 16,1 20,1 23,8 91 0,6 ----
VT CELLENO Acquaforte 24/09/2020 13,4 18,1 23 93 1,8 ----
VT CORCHIANO Pantalone 24/09/2020 13,4 19,4 27,2 87 0,2 1.011
VT FARNESE Gressa 24/09/2020 13,6 19 23 89 0,2 ----
VT FARNESE Pian di Sala 24/09/2020 11,1 18,3 25 94 0,2 ----
VT GROTTE DI CASTRO Borghetto 24/09/2020 14,3 19,7 24,2 91 0,2 1.013
VT GROTTE DI CASTRO Purgatorio 24/09/2020 13,5 18,7 24,8 93 0,2 1.016
VT LATERA Centro Florovivaistico 24/09/2020 11,7 19 26,1 92 0,2 1.014
VT MONTALTO Le Murelle 24/09/2020 16,4 21,9 27 85 0,2 1.012
VT MONTALTO Pescia Romana 24/09/2020 16,4 21,7 26,2 86 69,2 1.010
VT MONTEFIASCONE Commenda 24/09/2020 15,2 19,8 24,9 92 0,6 ----
VT RONCIGLIONE Ponterotto 24/09/2020 13,5 19,5 25,1 86 0,4 ----
VT SORIANO CIMINO Pantane 24/09/2020 13,5 19,2 25,9 87 0,4 1.011
VT SORIANO CIMINO Poggio di Chia 24/09/2020 14,1 19,4 24,5 93 0,6 ----
VT TARQUINIA Portaccia 24/09/2020 16,3 22,4 27,9 88 0,1 ----
VT TUSCANIA Montebello 24/09/2020 12,8 16,1 19,2 88 1,4 ----
VT VETRALLA Marchionato 24/09/2020 15,4 20,2 24,5 98 15,3 ----
VT VITERBO Pisello 24/09/2020 15 19,3 23,2 94 0,6 ----
N.D. = Dati Non Disponibili
---- = Sensore non presente

Le misure esposte sono grezze, ovvero non sono state validate.